createdAt,value
2019-01-11T00:00:13.961Z,1016.31
2019-01-11T00:01:13.961Z,1016.32
2019-01-11T00:02:13.945Z,1016.29
2019-01-11T00:03:13.923Z,1016.23
2019-01-11T00:04:13.922Z,1016.24
2019-01-11T00:05:13.905Z,1016.22
2019-01-11T00:06:13.911Z,1016.24
2019-01-11T00:07:13.900Z,1016.25
2019-01-11T00:08:13.861Z,1016.24
2019-01-11T00:09:13.873Z,1016.27
2019-01-11T00:10:13.853Z,1016.27
2019-01-11T00:11:13.827Z,1016.33
2019-01-11T00:12:13.857Z,1016.24
2019-01-11T00:13:13.839Z,1016.29
2019-01-11T00:14:13.787Z,1016.25
2019-01-11T00:15:13.791Z,1016.24
2019-01-11T00:16:13.783Z,1016.29
2019-01-11T00:17:13.780Z,1016.25
2019-01-11T00:18:13.780Z,1016.22
2019-01-11T00:19:13.740Z,1016.20
2019-01-11T00:20:13.736Z,1016.23
2019-01-11T00:21:13.730Z,1016.19
2019-01-11T00:22:13.716Z,1016.17
2019-01-11T00:23:13.746Z,1016.16
2019-01-11T00:24:13.714Z,1016.18
2019-01-11T00:25:13.678Z,1016.12
2019-01-11T00:26:13.667Z,1016.10
2019-01-11T00:27:13.669Z,1016.15
2019-01-11T00:28:13.655Z,1016.16
2019-01-11T00:29:13.678Z,1016.14
2019-01-11T00:30:13.678Z,1016.13
2019-01-11T00:31:13.623Z,1016.12
2019-01-11T00:32:13.605Z,1016.07
2019-01-11T00:33:13.587Z,1016.06
2019-01-11T00:34:13.634Z,1016.10
2019-01-11T00:35:13.587Z,1016.06
2019-01-11T00:36:13.568Z,1016.05
2019-01-11T00:37:13.553Z,1016.08
2019-01-11T00:38:13.548Z,1016.04
2019-01-11T00:39:13.565Z,1016.04
2019-01-11T00:40:13.510Z,1016.08
2019-01-11T00:41:13.523Z,1016.07
2019-01-11T00:42:13.495Z,1016.09
2019-01-11T00:43:15.135Z,1016.08
2019-01-11T00:44:13.469Z,1016.03
2019-01-11T00:45:13.471Z,1016.07
2019-01-11T00:46:13.473Z,1016.03
2019-01-11T00:47:13.453Z,1016.05
2019-01-11T00:48:13.442Z,1016.06
2019-01-11T00:49:13.856Z,1016.05
2019-01-11T00:50:13.440Z,1016.04
2019-01-11T00:51:13.389Z,1016.02
2019-01-11T00:52:13.384Z,1016.03
2019-01-11T00:53:13.375Z,1016.04
2019-01-11T00:54:13.360Z,1015.96
2019-01-11T00:55:13.372Z,1015.95
2019-01-11T00:56:13.370Z,1015.98
2019-01-11T00:57:13.325Z,1015.95
2019-01-11T00:58:13.320Z,1015.95
2019-01-11T00:59:13.347Z,1015.94
2019-01-11T01:00:13.338Z,1015.91
2019-01-11T01:01:13.310Z,1015.91
2019-01-11T01:02:15.123Z,1015.93
2019-01-11T01:03:13.282Z,1015.96
2019-01-11T01:04:13.245Z,1015.92
2019-01-11T01:05:13.255Z,1015.93
2019-01-11T01:06:13.254Z,1015.91
2019-01-11T01:07:13.255Z,1015.89
2019-01-11T01:08:13.217Z,1015.85
2019-01-11T01:09:13.207Z,1015.83
2019-01-11T01:10:13.195Z,1015.87
2019-01-11T01:11:13.172Z,1015.81
2019-01-11T01:12:13.187Z,1015.85
2019-01-11T01:13:13.173Z,1015.86
2019-01-11T01:14:13.186Z,1015.84
2019-01-11T01:15:13.137Z,1015.79
2019-01-11T01:16:13.129Z,1015.78
2019-01-11T01:17:13.139Z,1015.81
2019-01-11T01:18:13.106Z,1015.75
2019-01-11T01:19:13.103Z,1015.80
2019-01-11T01:20:13.094Z,1015.75
2019-01-11T01:21:13.079Z,1015.75
2019-01-11T01:22:13.074Z,1015.75
2019-01-11T01:23:13.080Z,1015.73
2019-01-11T01:24:13.038Z,1015.70
2019-01-11T01:25:13.022Z,1015.75
2019-01-11T01:26:13.012Z,1015.84
2019-01-11T01:27:13.011Z,1015.76
2019-01-11T01:28:13.013Z,1015.81
2019-01-11T01:29:13.007Z,1015.82
2019-01-11T01:30:12.966Z,1015.77
2019-01-11T01:31:12.962Z,1015.80
2019-01-11T01:32:12.957Z,1015.79
2019-01-11T01:33:12.949Z,1015.75
2019-01-11T01:34:12.961Z,1015.77
2019-01-11T01:35:12.924Z,1015.80
2019-01-11T01:36:12.906Z,1015.80
2019-01-11T01:37:12.902Z,1015.81
2019-01-11T01:38:12.888Z,1015.79
2019-01-11T01:39:12.890Z,1015.76
2019-01-11T01:40:12.920Z,1015.72
2019-01-11T01:41:12.877Z,1015.74
2019-01-11T01:42:12.849Z,1015.73
2019-01-11T01:43:12.833Z,1015.77
2019-01-11T01:44:12.826Z,1015.70
2019-01-11T01:45:12.828Z,1015.70
2019-01-11T01:46:12.835Z,1015.70
2019-01-11T01:47:12.778Z,1015.70
2019-01-11T01:48:12.766Z,1015.70
2019-01-11T01:49:12.763Z,1015.68
2019-01-11T01:50:12.751Z,1015.67
2019-01-11T01:51:12.782Z,1015.67
2019-01-11T01:52:12.746Z,1015.68
2019-01-11T01:53:12.753Z,1015.66
2019-01-11T01:54:12.718Z,1015.65
2019-01-11T01:55:12.700Z,1015.64
2019-01-11T01:56:12.683Z,1015.64
2019-01-11T01:57:12.679Z,1015.65
2019-01-11T01:58:12.708Z,1015.65
2019-01-11T01:59:12.667Z,1015.60
2019-01-11T02:00:12.652Z,1015.62
2019-01-11T02:01:12.635Z,1015.60
2019-01-11T02:02:12.619Z,1015.57
2019-01-11T02:03:12.638Z,1015.59
2019-01-11T02:04:12.629Z,1015.59
2019-01-11T02:05:12.601Z,1015.57
2019-01-11T02:06:12.606Z,1015.54
2019-01-11T02:07:12.568Z,1015.52
2019-01-11T02:08:12.573Z,1015.52
2019-01-11T02:09:12.545Z,1015.51
2019-01-11T02:10:12.534Z,1015.47
2019-01-11T02:11:12.541Z,1015.51
2019-01-11T02:12:12.528Z,1015.46
2019-01-11T02:13:12.531Z,1015.47
2019-01-11T02:14:12.506Z,1015.46
2019-01-11T02:15:12.487Z,1015.40
2019-01-11T02:16:12.470Z,1015.47
2019-01-11T02:17:12.465Z,1015.44
2019-01-11T02:18:12.473Z,1015.47
2019-01-11T02:19:12.445Z,1015.42
2019-01-11T02:20:12.427Z,1015.41
2019-01-11T02:21:12.425Z,1015.42
2019-01-11T02:22:12.408Z,1015.43
2019-01-11T02:23:12.424Z,1015.41
2019-01-11T02:24:12.392Z,1015.41
2019-01-11T02:25:12.396Z,1015.40
2019-01-11T02:26:12.365Z,1015.37
2019-01-11T02:27:12.356Z,1015.32
2019-01-11T02:28:12.365Z,1015.37
2019-01-11T02:29:12.324Z,1015.27
2019-01-11T02:30:12.341Z,1015.31
2019-01-11T02:31:12.314Z,1015.33
2019-01-11T02:32:12.311Z,1015.25
2019-01-11T02:33:12.341Z,1015.25
2019-01-11T02:34:12.280Z,1015.25
2019-01-11T02:35:12.281Z,1015.23
2019-01-11T02:36:12.256Z,1015.26
2019-01-11T02:37:12.260Z,1015.24
2019-01-11T02:38:12.236Z,1015.22
2019-01-11T02:39:12.244Z,1015.19
2019-01-11T02:40:12.213Z,1015.18
2019-01-11T02:41:12.208Z,1015.20
2019-01-11T02:42:12.183Z,1015.21
2019-01-11T02:43:12.213Z,1015.18
2019-01-11T02:44:12.177Z,1015.19
2019-01-11T02:45:12.177Z,1015.14
2019-01-11T02:46:12.158Z,1015.15
2019-01-11T02:47:12.135Z,1015.18
2019-01-11T02:48:12.128Z,1015.14
2019-01-11T02:49:12.155Z,1015.16
2019-01-11T02:50:12.111Z,1015.10
2019-01-11T02:51:12.091Z,1015.09
2019-01-11T02:52:12.088Z,1015.12
2019-01-11T02:53:12.069Z,1015.10
2019-01-11T02:54:12.062Z,1015.04
2019-01-11T02:55:12.081Z,1015.08
2019-01-11T02:56:12.051Z,1015.03
2019-01-11T02:57:12.045Z,1015.05
2019-01-11T02:58:12.021Z,1014.97
2019-01-11T02:59:12.008Z,1014.95
2019-01-11T03:00:12.029Z,1014.92
2019-01-11T03:01:12.010Z,1014.95
2019-01-11T03:02:11.973Z,1014.89
2019-01-11T03:03:11.971Z,1014.90
2019-01-11T03:04:11.959Z,1014.89
2019-01-11T03:05:11.946Z,1014.82
2019-01-11T03:06:11.948Z,1014.81
2019-01-11T03:07:11.945Z,1014.78
2019-01-11T03:08:11.916Z,1014.76
2019-01-11T03:09:11.906Z,1014.70
2019-01-11T03:10:11.883Z,1014.71
2019-01-11T03:11:11.900Z,1014.69
2019-01-11T03:12:11.871Z,1014.60
2019-01-11T03:13:11.857Z,1014.62
2019-01-11T03:14:11.837Z,1014.63
2019-01-11T03:15:11.837Z,1014.66
2019-01-11T03:16:11.848Z,1014.59
2019-01-11T03:17:11.822Z,1014.60
2019-01-11T03:18:11.818Z,1014.60
2019-01-11T03:19:11.790Z,1014.55
2019-01-11T03:20:11.776Z,1014.54
2019-01-11T03:21:11.775Z,1014.57
2019-01-11T03:22:11.787Z,1014.51
2019-01-11T03:23:11.779Z,1014.49
2019-01-11T03:24:11.741Z,1014.47
2019-01-11T03:25:11.739Z,1014.45
2019-01-11T03:26:11.705Z,1014.43
2019-01-11T03:27:11.706Z,1014.45
2019-01-11T03:28:11.702Z,1014.44
2019-01-11T03:29:12.012Z,1014.33
2019-01-11T03:30:11.684Z,1014.38
2019-01-11T03:31:11.664Z,1014.32
2019-01-11T03:32:11.650Z,1014.31
2019-01-11T03:33:11.645Z,1014.37
2019-01-11T03:34:11.645Z,1014.27
2019-01-11T03:35:11.644Z,1014.33
2019-01-11T03:36:11.635Z,1014.24
2019-01-11T03:37:11.598Z,1014.24
2019-01-11T03:38:11.587Z,1014.22
2019-01-11T03:39:11.601Z,1014.22
2019-01-11T03:40:11.588Z,1014.21
2019-01-11T03:41:11.570Z,1014.19
2019-01-11T03:42:11.540Z,1014.19
2019-01-11T03:43:11.565Z,1014.14
2019-01-11T03:44:11.574Z,1014.10
2019-01-11T03:45:11.537Z,1014.11
2019-01-11T03:46:11.544Z,1014.08
2019-01-11T03:47:11.495Z,1014.05
2019-01-11T03:48:11.484Z,1014.06
2019-01-11T03:49:11.465Z,1014.02
2019-01-11T03:50:11.461Z,1013.99
2019-01-11T03:51:11.442Z,1014.02
2019-01-11T03:52:11.446Z,1014.04
2019-01-11T03:53:11.428Z,1013.98
2019-01-11T03:54:11.446Z,1014.02
2019-01-11T03:55:11.421Z,1014.04
2019-01-11T03:56:11.402Z,1013.97
2019-01-11T03:57:11.399Z,1013.98
2019-01-11T03:58:11.364Z,1014.03
2019-01-11T03:59:11.363Z,1014.05
2019-01-11T04:00:11.347Z,1014.05
2019-01-11T04:01:11.376Z,1014.03
2019-01-11T04:02:11.333Z,1014.06
2019-01-11T04:03:11.368Z,1014.07
2019-01-11T04:04:11.301Z,1013.94
2019-01-11T04:05:11.299Z,1013.90
2019-01-11T04:06:11.273Z,1013.89
2019-01-11T04:07:11.292Z,1013.88
2019-01-11T04:08:11.264Z,1013.88
2019-01-11T04:09:11.247Z,1013.90
2019-01-11T04:10:11.231Z,1013.85
2019-01-11T04:11:11.223Z,1013.84
2019-01-11T04:12:12.013Z,1013.81
2019-01-11T04:13:11.217Z,1013.79
2019-01-11T04:14:11.192Z,1013.81
2019-01-11T04:15:11.182Z,1013.76
2019-01-11T04:16:11.166Z,1013.77
2019-01-11T04:17:11.158Z,1013.76
2019-01-11T04:18:11.160Z,1013.75
2019-01-11T04:19:11.151Z,1013.77
2019-01-11T04:20:11.134Z,1013.77
2019-01-11T04:21:11.122Z,1013.74
2019-01-11T04:22:11.107Z,1013.69
2019-01-11T04:23:11.103Z,1013.69
2019-01-11T04:24:11.086Z,1013.65
2019-01-11T04:25:11.083Z,1013.69
2019-01-11T04:26:11.076Z,1013.65
2019-01-11T04:27:11.050Z,1013.61
2019-01-11T04:28:11.057Z,1013.58
2019-01-11T04:29:11.052Z,1013.62
2019-01-11T04:30:11.025Z,1013.59
2019-01-11T04:31:11.021Z,1013.53
2019-01-11T04:32:11.008Z,1013.52
2019-01-11T04:33:10.994Z,1013.54
2019-01-11T04:34:10.984Z,1013.51
2019-01-11T04:35:10.991Z,1013.49
2019-01-11T04:36:11.585Z,1013.46
2019-01-11T04:37:10.937Z,1013.45
2019-01-11T04:38:10.949Z,1013.49
2019-01-11T04:39:10.934Z,1013.42
2019-01-11T04:40:10.950Z,1013.35
2019-01-11T04:41:10.901Z,1013.42
2019-01-11T04:42:10.887Z,1013.38
2019-01-11T04:43:10.913Z,1013.35
2019-01-11T04:44:10.876Z,1013.35
2019-01-11T04:45:10.878Z,1013.29
2019-01-11T04:46:10.851Z,1013.28
2019-01-11T04:47:10.835Z,1013.32
2019-01-11T04:48:10.827Z,1013.26
2019-01-11T04:49:10.834Z,1013.28
2019-01-11T04:50:10.813Z,1013.23
2019-01-11T04:51:10.800Z,1013.24
2019-01-11T04:52:10.789Z,1013.24
2019-01-11T04:53:10.808Z,1013.19
2019-01-11T04:54:10.776Z,1013.20
2019-01-11T04:55:10.782Z,1013.19
2019-01-11T04:56:10.743Z,1013.18
2019-01-11T04:57:10.734Z,1013.20
2019-01-11T04:58:10.726Z,1013.29
2019-01-11T04:59:10.714Z,1013.22
2019-01-11T05:00:10.719Z,1013.15
2019-01-11T05:01:10.686Z,1013.17
2019-01-11T05:02:10.675Z,1013.14
2019-01-11T05:03:10.666Z,1013.12
2019-01-11T05:04:10.668Z,1013.02
2019-01-11T05:05:10.654Z,1013.10
2019-01-11T05:06:10.652Z,1013.00
2019-01-11T05:07:10.615Z,1013.03
2019-01-11T05:08:10.608Z,1013.05
2019-01-11T05:09:10.625Z,1013.08
2019-01-11T05:10:10.580Z,1013.00
2019-01-11T05:11:10.592Z,1013.05
2019-01-11T05:12:10.600Z,1013.00
2019-01-11T05:13:10.548Z,1012.93
2019-01-11T05:14:10.549Z,1012.94
2019-01-11T05:15:10.535Z,1012.97
2019-01-11T05:16:10.531Z,1012.99
2019-01-11T05:17:10.517Z,1012.91
2019-01-11T05:18:10.525Z,1012.93
2019-01-11T05:19:10.484Z,1012.87
2019-01-11T05:20:16.530Z,1012.83
2019-01-11T05:21:11.483Z,1012.85
2019-01-11T05:22:10.453Z,1012.84
2019-01-11T05:23:10.470Z,1012.81
2019-01-11T05:24:10.439Z,1012.83
2019-01-11T05:25:10.430Z,1012.81
2019-01-11T05:26:10.443Z,1012.73
2019-01-11T05:27:10.394Z,1012.77
2019-01-11T05:28:10.382Z,1012.76
2019-01-11T05:29:10.391Z,1012.75
2019-01-11T05:30:10.622Z,1012.73
2019-01-11T05:31:10.358Z,1012.72
2019-01-11T05:32:10.344Z,1012.74
2019-01-11T05:33:10.338Z,1012.71
2019-01-11T05:34:10.337Z,1012.75
2019-01-11T05:35:10.345Z,1012.75
2019-01-11T05:36:10.345Z,1012.69
2019-01-11T05:37:10.309Z,1012.72
2019-01-11T05:38:10.301Z,1012.73
2019-01-11T05:39:10.276Z,1012.71
2019-01-11T05:40:10.285Z,1012.70
2019-01-11T05:41:10.242Z,1012.72
2019-01-11T05:42:10.260Z,1012.66
2019-01-11T05:43:10.240Z,1012.64
2019-01-11T05:44:10.231Z,1012.59
2019-01-11T05:45:10.222Z,1012.58
2019-01-11T05:46:10.196Z,1012.62
2019-01-11T05:47:10.226Z,1012.56
2019-01-11T05:48:10.180Z,1012.51
2019-01-11T05:49:11.042Z,1012.54
2019-01-11T05:50:10.171Z,1012.49
2019-01-11T05:51:10.145Z,1012.47
2019-01-11T05:52:10.127Z,1012.55
2019-01-11T05:53:10.669Z,1012.51
2019-01-11T05:54:10.115Z,1012.48
2019-01-11T05:55:10.112Z,1012.43
2019-01-11T05:56:10.096Z,1012.39
2019-01-11T05:57:10.133Z,1012.36
2019-01-11T05:58:10.069Z,1012.38
2019-01-11T05:59:10.069Z,1012.39
2019-01-11T06:00:10.043Z,1012.34
2019-01-11T06:01:10.052Z,1012.34
2019-01-11T06:02:10.028Z,1012.33
2019-01-11T06:03:10.006Z,1012.29
2019-01-11T06:04:10.026Z,1012.36
2019-01-11T06:05:09.992Z,1012.25
2019-01-11T06:06:09.985Z,1012.30
2019-01-11T06:07:09.994Z,1012.28
2019-01-11T06:08:09.965Z,1012.22
2019-01-11T06:09:09.967Z,1012.18
2019-01-11T06:10:09.960Z,1012.19
2019-01-11T06:11:09.922Z,1012.26
2019-01-11T06:12:09.914Z,1012.15
2019-01-11T06:13:09.903Z,1012.18
2019-01-11T06:14:09.893Z,1012.16
2019-01-11T06:15:09.913Z,1012.15
2019-01-11T06:16:09.879Z,1012.17
2019-01-11T06:17:09.878Z,1012.17
2019-01-11T06:18:09.848Z,1012.14
2019-01-11T06:19:09.846Z,1012.14
2019-01-11T06:20:09.856Z,1012.12
2019-01-11T06:21:09.830Z,1012.11
2019-01-11T06:22:09.834Z,1012.13
2019-01-11T06:23:09.814Z,1012.12
2019-01-11T06:24:09.781Z,1012.10
2019-01-11T06:25:09.773Z,1012.04
2019-01-11T06:26:09.763Z,1012.04
2019-01-11T06:27:09.812Z,1011.98
2019-01-11T06:28:09.756Z,1012.01
2019-01-11T06:29:09.739Z,1011.95
2019-01-11T06:30:09.730Z,1011.99
2019-01-11T06:31:09.705Z,1011.93
2019-01-11T06:32:09.709Z,1012.01
2019-01-11T06:33:09.720Z,1011.98
2019-01-11T06:34:09.698Z,1011.97
2019-01-11T06:35:09.692Z,1012.00
2019-01-11T06:36:09.656Z,1011.95
2019-01-11T06:37:09.658Z,1011.95
2019-01-11T06:38:09.668Z,1011.93
2019-01-11T06:39:09.639Z,1011.94
2019-01-11T06:40:09.624Z,1011.93
2019-01-11T06:41:09.619Z,1011.90
2019-01-11T06:42:09.605Z,1011.90
2019-01-11T06:43:09.591Z,1011.89
2019-01-11T06:44:09.604Z,1011.77
2019-01-11T06:45:09.567Z,1011.81
2019-01-11T06:46:09.563Z,1011.80
2019-01-11T06:47:09.544Z,1011.83
2019-01-11T06:48:09.531Z,1011.83
2019-01-11T06:49:09.522Z,1011.84
2019-01-11T06:50:09.540Z,1011.83
2019-01-11T06:51:09.503Z,1011.79
2019-01-11T06:52:09.500Z,1011.74
2019-01-11T06:53:09.498Z,1011.74
2019-01-11T06:54:09.472Z,1011.78
2019-01-11T06:55:09.536Z,1011.72
2019-01-11T06:56:09.504Z,1011.71
2019-01-11T06:57:09.426Z,1011.72
2019-01-11T06:58:09.428Z,1011.75
2019-01-11T06:59:10.280Z,1011.66
2019-01-11T07:00:09.510Z,1011.70
2019-01-11T07:01:09.403Z,1011.70
2019-01-11T07:02:09.393Z,1011.70
2019-01-11T07:03:09.363Z,1011.69
2019-01-11T07:04:09.354Z,1011.70
2019-01-11T07:05:09.355Z,1011.68
2019-01-11T07:06:09.368Z,1011.70
2019-01-11T07:07:09.328Z,1011.70
2019-01-11T07:08:09.313Z,1011.69
2019-01-11T07:09:09.308Z,1011.71
2019-01-11T07:10:09.312Z,1011.65
2019-01-11T07:11:09.285Z,1011.62
2019-01-11T07:12:09.300Z,1011.68
2019-01-11T07:13:09.251Z,1011.58
2019-01-11T07:14:09.248Z,1011.57
2019-01-11T07:15:09.248Z,1011.64
2019-01-11T07:16:09.230Z,1011.55
2019-01-11T07:17:09.255Z,1011.63
2019-01-11T07:18:09.219Z,1011.62
2019-01-11T07:19:09.199Z,1011.67
2019-01-11T07:20:09.181Z,1011.68
2019-01-11T07:21:10.734Z,1011.62
2019-01-11T07:22:09.173Z,1011.69
2019-01-11T07:23:09.212Z,1011.65
2019-01-11T07:24:09.197Z,1011.64
2019-01-11T07:25:09.130Z,1011.68
2019-01-11T07:26:09.127Z,1011.68
2019-01-11T07:27:09.110Z,1011.69
2019-01-11T07:28:13.636Z,1011.54
2019-01-11T07:29:09.118Z,1011.65
2019-01-11T07:30:09.124Z,1011.67
2019-01-11T07:31:09.067Z,1011.64
2019-01-11T07:32:09.057Z,1011.68
2019-01-11T07:33:09.038Z,1011.70
2019-01-11T07:34:09.063Z,1011.69
2019-01-11T07:35:09.030Z,1011.64
2019-01-11T07:36:09.023Z,1011.66
2019-01-11T07:37:09.003Z,1011.67
2019-01-11T07:38:08.987Z,1011.64
2019-01-11T07:39:08.983Z,1011.64
2019-01-11T07:40:09.012Z,1011.59
2019-01-11T07:41:08.969Z,1011.57
2019-01-11T07:42:08.963Z,1011.59
2019-01-11T07:43:08.939Z,1011.61
2019-01-11T07:44:08.924Z,1011.61
2019-01-11T07:45:08.910Z,1011.60
2019-01-11T07:46:08.917Z,1011.55
2019-01-11T07:47:08.893Z,1011.56
2019-01-11T07:48:08.888Z,1011.56
2019-01-11T07:49:08.882Z,1011.48
2019-01-11T07:50:08.892Z,1011.50
2019-01-11T07:51:08.848Z,1011.52
2019-01-11T07:52:08.854Z,1011.55
2019-01-11T07:53:08.839Z,1011.50
2019-01-11T07:54:08.824Z,1011.59
2019-01-11T07:55:08.805Z,1011.59
2019-01-11T07:56:08.798Z,1011.60
2019-01-11T07:57:08.799Z,1011.58
2019-01-11T07:58:08.804Z,1011.54
2019-01-11T07:59:09.605Z,1011.57
2019-01-11T08:00:08.761Z,1011.55
2019-01-11T08:01:08.747Z,1011.56
2019-01-11T08:02:08.734Z,1011.51
2019-01-11T08:03:08.717Z,1011.53
2019-01-11T08:04:08.732Z,1011.56
2019-01-11T08:05:08.705Z,1011.59
2019-01-11T08:06:08.690Z,1011.56
2019-01-11T08:07:08.695Z,1011.53
2019-01-11T08:08:08.676Z,1011.48
2019-01-11T08:09:08.682Z,1011.46
2019-01-11T08:10:08.649Z,1011.44
2019-01-11T08:11:08.639Z,1011.49
2019-01-11T08:12:08.651Z,1011.46
2019-01-11T08:13:08.638Z,1011.41
2019-01-11T08:14:08.641Z,1011.43
2019-01-11T08:15:08.627Z,1011.36
2019-01-11T08:16:08.600Z,1011.41
2019-01-11T08:17:08.566Z,1011.34
2019-01-11T08:18:08.550Z,1011.34
2019-01-11T08:19:09.029Z,1011.35
2019-01-11T08:20:08.553Z,1011.28
2019-01-11T08:21:08.560Z,1011.24
2019-01-11T08:22:08.525Z,1011.20
2019-01-11T08:23:08.527Z,1011.22
2019-01-11T08:24:08.497Z,1011.24
2019-01-11T08:25:08.507Z,1011.22
2019-01-11T08:26:08.533Z,1011.15
2019-01-11T08:27:08.459Z,1011.17
2019-01-11T08:28:08.469Z,1011.11
2019-01-11T08:29:08.439Z,1011.12
2019-01-11T08:30:08.425Z,1011.12
2019-01-11T08:31:08.426Z,1011.12
2019-01-11T08:32:08.448Z,1011.15
2019-01-11T08:33:08.426Z,1011.13
2019-01-11T08:34:08.393Z,1011.15
2019-01-11T08:35:08.384Z,1011.08
2019-01-11T08:36:08.361Z,1011.10
2019-01-11T08:37:08.357Z,1011.07
2019-01-11T08:38:08.361Z,1011.03
2019-01-11T08:39:08.353Z,1011.08
2019-01-11T08:40:08.325Z,1011.07
2019-01-11T08:41:08.319Z,1011.07
2019-01-11T08:42:08.296Z,1011.05
2019-01-11T08:43:08.295Z,1011.09
2019-01-11T08:44:08.363Z,1011.09
2019-01-11T08:45:08.278Z,1011.04
2019-01-11T08:46:08.266Z,1010.98
2019-01-11T08:47:08.245Z,1011.05
2019-01-11T08:48:08.233Z,1010.97
2019-01-11T08:49:08.221Z,1010.91
2019-01-11T08:50:08.241Z,1010.96
2019-01-11T08:51:08.208Z,1010.96
2019-01-11T08:52:08.199Z,1010.86
2019-01-11T08:53:08.211Z,1010.88
2019-01-11T08:54:08.179Z,1010.92
2019-01-11T08:55:08.157Z,1010.84
2019-01-11T08:56:08.705Z,1010.87
2019-01-11T08:57:08.167Z,1010.84
2019-01-11T08:58:08.155Z,1010.88
2019-01-11T08:59:08.135Z,1010.81
2019-01-11T09:00:08.106Z,1010.82
2019-01-11T09:01:08.094Z,1010.80
2019-01-11T09:02:08.104Z,1010.81
2019-01-11T09:03:08.118Z,1010.83
2019-01-11T09:04:08.076Z,1010.77
2019-01-11T09:05:08.063Z,1010.74
2019-01-11T09:06:08.050Z,1010.73
2019-01-11T09:07:08.038Z,1010.69
2019-01-11T09:08:08.026Z,1010.67
2019-01-11T09:09:08.026Z,1010.68
2019-01-11T09:10:08.008Z,1010.64
2019-01-11T09:11:08.005Z,1010.62
2019-01-11T09:12:07.979Z,1010.62
2019-01-11T09:13:07.986Z,1010.66
2019-01-11T09:14:07.983Z,1010.64
2019-01-11T09:15:07.947Z,1010.67
2019-01-11T09:16:07.935Z,1010.74
2019-01-11T09:17:07.924Z,1010.78
2019-01-11T09:18:07.914Z,1010.75
2019-01-11T09:19:08.129Z,1010.75
2019-01-11T09:20:07.899Z,1010.83
2019-01-11T09:21:09.668Z,1010.75
2019-01-11T09:22:07.862Z,1010.76
2019-01-11T09:23:07.880Z,1010.77
2019-01-11T09:24:07.852Z,1010.77
2019-01-11T09:25:08.158Z,1010.76
2019-01-11T09:26:07.837Z,1010.75
2019-01-11T09:27:07.856Z,1010.75
2019-01-11T09:28:07.819Z,1010.71
2019-01-11T09:29:07.853Z,1010.77
2019-01-11T09:30:07.794Z,1010.69
2019-01-11T09:31:07.787Z,1010.66
2019-01-11T09:32:07.755Z,1010.60
2019-01-11T09:33:07.764Z,1010.54
2019-01-11T09:34:07.731Z,1010.56
2019-01-11T09:35:07.728Z,1010.55
2019-01-11T09:36:07.784Z,1010.53
2019-01-11T09:37:07.737Z,1010.46
2019-01-11T09:38:07.757Z,1010.43
2019-01-11T09:39:07.668Z,1010.43
2019-01-11T09:40:07.668Z,1010.38
2019-01-11T09:41:07.665Z,1010.39
2019-01-11T09:42:07.670Z,1010.45
2019-01-11T09:43:07.663Z,1010.46
2019-01-11T09:44:07.642Z,1010.40
2019-01-11T09:45:07.614Z,1010.44
2019-01-11T09:46:07.615Z,1010.39
2019-01-11T09:47:07.606Z,1010.38
2019-01-11T09:48:07.614Z,1010.32
2019-01-11T09:49:07.588Z,1010.32
2019-01-11T09:50:07.568Z,1010.34
2019-01-11T09:51:07.557Z,1010.35
2019-01-11T09:52:07.572Z,1010.33
2019-01-11T09:53:07.534Z,1010.32
2019-01-11T09:54:07.512Z,1010.32
2019-01-11T09:55:07.513Z,1010.34
2019-01-11T09:56:07.500Z,1010.35
2019-01-11T09:57:07.493Z,1010.33
2019-01-11T09:58:07.505Z,1010.32
2019-01-11T09:59:07.454Z,1010.32
2019-01-11T10:00:07.449Z,1010.34
2019-01-11T10:01:07.441Z,1010.30
2019-01-11T10:02:07.432Z,1010.30
2019-01-11T10:03:07.429Z,1010.21
2019-01-11T10:04:07.435Z,1010.21
2019-01-11T10:05:07.411Z,1010.26
2019-01-11T10:06:07.388Z,1010.25
2019-01-11T10:07:07.380Z,1010.21
2019-01-11T10:08:07.400Z,1010.22
2019-01-11T10:09:07.378Z,1010.22
2019-01-11T10:10:07.343Z,1010.24
2019-01-11T10:11:07.334Z,1010.20
2019-01-11T10:12:07.325Z,1010.06
2019-01-11T10:13:07.313Z,1010.07
2019-01-11T10:14:07.324Z,1010.04
2019-01-11T10:15:07.302Z,1010.03
2019-01-11T10:16:07.283Z,1010.01
2019-01-11T10:17:07.286Z,1010.00
2019-01-11T10:18:07.261Z,1010.02
2019-01-11T10:19:07.256Z,1009.99
2019-01-11T10:20:07.242Z,1009.99
2019-01-11T10:21:07.256Z,1009.94
2019-01-11T10:22:07.224Z,1009.93
2019-01-11T10:23:07.206Z,1009.92
2019-01-11T10:24:07.185Z,1009.88
2019-01-11T10:25:07.184Z,1009.86
2019-01-11T10:26:07.175Z,1009.84
2019-01-11T10:27:07.187Z,1009.74
2019-01-11T10:28:07.159Z,1009.80
2019-01-11T10:29:07.147Z,1009.81
2019-01-11T10:30:07.138Z,1009.82
2019-01-11T10:31:07.122Z,1009.81
2019-01-11T10:32:07.124Z,1009.78
2019-01-11T10:33:07.098Z,1009.72
2019-01-11T10:34:07.088Z,1009.69
2019-01-11T10:35:07.070Z,1009.69
2019-01-11T10:36:07.059Z,1009.66
2019-01-11T10:37:07.066Z,1009.64
2019-01-11T10:38:07.037Z,1009.57
2019-01-11T10:39:07.053Z,1009.60
2019-01-11T10:40:07.035Z,1009.60
2019-01-11T10:41:07.019Z,1009.58
2019-01-11T10:42:07.002Z,1009.49
2019-01-11T10:43:07.004Z,1009.54
2019-01-11T10:44:06.971Z,1009.52
2019-01-11T10:45:06.964Z,1009.53
2019-01-11T10:46:06.952Z,1009.47
2019-01-11T10:47:06.952Z,1009.41
2019-01-11T10:48:06.956Z,1009.42
2019-01-11T10:49:06.936Z,1009.45
2019-01-11T10:50:06.961Z,1009.35
2019-01-11T10:51:06.904Z,1009.37
2019-01-11T10:52:06.891Z,1009.32
2019-01-11T10:53:06.894Z,1009.34
2019-01-11T10:54:06.903Z,1009.34
2019-01-11T10:55:06.861Z,1009.31
2019-01-11T10:56:06.873Z,1009.32
2019-01-11T10:57:06.832Z,1009.34
2019-01-11T10:58:06.826Z,1009.31
2019-01-11T10:59:06.821Z,1009.27
2019-01-11T11:00:06.838Z,1009.32
2019-01-11T11:01:06.805Z,1009.28
2019-01-11T11:02:06.788Z,1009.26
2019-01-11T11:03:06.765Z,1009.33
2019-01-11T11:04:06.755Z,1009.33
2019-01-11T11:05:06.750Z,1009.31
2019-01-11T11:06:06.761Z,1009.25
2019-01-11T11:07:06.723Z,1009.28
2019-01-11T11:08:06.776Z,1009.27
2019-01-11T11:09:06.702Z,1009.26
2019-01-11T11:10:06.691Z,1009.23
2019-01-11T11:11:06.733Z,1009.15
2019-01-11T11:12:06.684Z,1009.21
2019-01-11T11:13:06.669Z,1009.22
2019-01-11T11:14:06.654Z,1009.13
2019-01-11T11:15:06.639Z,1009.09
2019-01-11T11:16:06.655Z,1009.16
2019-01-11T11:17:06.616Z,1009.05
2019-01-11T11:18:06.603Z,1009.11
2019-01-11T11:19:06.607Z,1009.05
2019-01-11T11:20:06.596Z,1009.00
2019-01-11T11:21:06.569Z,1009.00
2019-01-11T11:22:06.586Z,1009.01
2019-01-11T11:23:06.556Z,1008.99
2019-01-11T11:24:06.553Z,1008.96
2019-01-11T11:25:06.531Z,1008.95
2019-01-11T11:26:06.528Z,1008.87
2019-01-11T11:27:06.502Z,1008.90
2019-01-11T11:28:06.511Z,1008.79
2019-01-11T11:29:06.487Z,1008.84
2019-01-11T11:30:06.476Z,1008.75
2019-01-11T11:31:06.469Z,1008.80
2019-01-11T11:32:06.489Z,1008.78
2019-01-11T11:33:06.456Z,1008.78
2019-01-11T11:34:06.451Z,1008.68
2019-01-11T11:35:06.426Z,1008.69
2019-01-11T11:36:06.407Z,1008.73
2019-01-11T11:37:06.408Z,1008.62
2019-01-11T11:38:06.418Z,1008.62
2019-01-11T11:39:06.374Z,1008.59
2019-01-11T11:40:06.391Z,1008.60
2019-01-11T11:41:06.355Z,1008.57
2019-01-11T11:42:06.341Z,1008.63
2019-01-11T11:43:06.372Z,1008.59
2019-01-11T11:44:06.334Z,1008.54
2019-01-11T11:45:06.340Z,1008.56
2019-01-11T11:46:06.330Z,1008.54
2019-01-11T11:47:06.284Z,1008.51
2019-01-11T11:48:06.291Z,1008.45
2019-01-11T11:49:06.271Z,1008.47
2019-01-11T11:50:06.259Z,1008.45
2019-01-11T11:51:06.261Z,1008.44
2019-01-11T11:52:06.246Z,1008.39
2019-01-11T11:53:06.239Z,1008.40
2019-01-11T11:54:06.213Z,1008.28
2019-01-11T11:55:06.208Z,1008.27
2019-01-11T11:56:06.204Z,1008.27
2019-01-11T11:57:06.186Z,1008.20
2019-01-11T11:58:06.201Z,1008.23
2019-01-11T11:59:06.155Z,1008.22
2019-01-11T12:00:06.139Z,1008.19
2019-01-11T12:01:06.133Z,1008.12
2019-01-11T12:02:06.125Z,1008.11
2019-01-11T12:03:06.142Z,1008.11
2019-01-11T12:04:06.105Z,1008.11
2019-01-11T12:05:06.103Z,1008.09